Celebrity Century — 9HJI9 — position and weather

sailwx.info

Track history (hours):
 
Tides and Currents Weather Stations Pressure Air Temp Water Temp Dewpoint Dewpoint Depression Visibility Wind Speed Wind Dir Waves Ship Positions

Celebrity Century

Last reported at 2016-Jun-26 08:33 UTC. Time now 2016-Jun-27 22:18 UTC.
Position N 31°22' E 121°38'.

; draft 7.9 m.

Type: Ship. MMSI: 249054000.

Date/timePositionNaut miles runAvg speedWind from/ knotsBaromVisibWave heightAir tempDewpointWater temp
2016-Jun-26 08:33N 31°22' E 121°38'7 6.3
2016-Jun-26 07:29N 31°25' E 121°30'0 0.0
2016-Jun-26 06:29N 31°25' E 121°30'0 0.0
2016-Jun-26 04:23N 31°25' E 121°30'0 0.0
2016-Jun-26 03:23N 31°25' E 121°30'0 0.0
2016-Jun-26 02:05N 31°25' E 121°30'0 0.0
2016-Jun-26 01:23N 31°25' E 121°30'0 0.0
2016-Jun-26 00:17N 31°25' E 121°30'0 0.3
2016-Jun-25 23:33N 31°25' E 121°31'9 9.1
2016-Jun-25 22:33N 31°21' E 121°40'10 9.6
2016-Jun-25 21:33N 31°17' E 121°50'1111.3
2016-Jun-25 20:33N 31°14' E 122°03'  
2016-Jun-22 09:16N 31°18' E 121°48'912.7
2016-Jun-22 08:33N 31°22' E 121°38'7 7.0
2016-Jun-22 07:32N 31°25' E 121°30'0 0.0
2016-Jun-22 06:32N 31°25' E 121°30'0 0.0
2016-Jun-22 05:26N 31°25' E 121°30'0 0.0
2016-Jun-22 04:30N 31°25' E 121°30'45275.1
2016-Jun-21 22:29N 33°41' E 130°01'13 6.0
2016-Jun-21 20:25N 33°40' E 129°46'3125.8
2016-Jun-21 19:12N 33°37' E 130°24'469286.6
2016-Jun-21 17:34N 31°25' E 121°30'6 5.8
2016-Jun-21 16:33N 31°23' E 121°37'1111.3
2016-Jun-21 15:34N 31°17' E 121°49'1111.0
2016-Jun-21 14:34N 31°15' E 122°01'1110.9
2016-Jun-21 13:33N 31°10' E 122°12'1110.8
2016-Jun-21 12:30N 31°06' E 122°25'  
2016-Jun-18 09:29N 31°16' E 121°54'1313.9
2016-Jun-18 08:33N 31°21' E 121°40'9 9.3
2016-Jun-18 07:33N 31°25' E 121°30'0 0.0
2016-Jun-18 06:31N 31°25' E 121°30'0 0.0
2016-Jun-18 05:31N 31°25' E 121°30'0 0.0
2016-Jun-18 04:25N 31°25' E 121°30'0 0.0
2016-Jun-18 03:25N 31°25' E 121°30'0 0.0
2016-Jun-18 02:31N 31°25' E 121°30'0 0.0
2016-Jun-18 01:13N 31°25' E 121°30'0 0.0
2016-Jun-18 00:31N 31°25' E 121°30'0 0.2
2016-Jun-17 23:33N 31°25' E 121°31'5 5.4
2016-Jun-17 22:33N 31°23' E 121°36'1111.1
2016-Jun-17 21:33N 31°18' E 121°48'1211.6
2016-Jun-17 20:32N 31°15' E 122°01'1110.6
2016-Jun-17 19:31N 31°10' E 122°13'  
Track history (hours):
 
Tides and Currents Weather Stations Pressure Air Temp Water Temp Dewpoint Dewpoint Depression Visibility Wind Speed Wind Dir Waves Ship Positions

Celebrity Century

Last reported at 2016-Jun-26 08:33 UTC. Time now 2016-Jun-27 22:18 UTC.
Position N 31°22' E 121°38'.

; draft 7.9 m.

Type: Ship. MMSI: 249054000.

Date/timePositionNaut miles runAvg speedWind from/ knotsBaromVisibWave heightAir tempDewpointWater temp
2016-Jun-26 08:33N 31°22' E 121°38'7 6.3
2016-Jun-26 07:29N 31°25' E 121°30'0 0.0
2016-Jun-26 06:29N 31°25' E 121°30'0 0.0
2016-Jun-26 04:23N 31°25' E 121°30'0 0.0
2016-Jun-26 03:23N 31°25' E 121°30'0 0.0
2016-Jun-26 02:05N 31°25' E 121°30'0 0.0
2016-Jun-26 01:23N 31°25' E 121°30'0 0.0
2016-Jun-26 00:17N 31°25' E 121°30'0 0.3
2016-Jun-25 23:33N 31°25' E 121°31'9 9.1
2016-Jun-25 22:33N 31°21' E 121°40'10 9.6
2016-Jun-25 21:33N 31°17' E 121°50'1111.3
2016-Jun-25 20:33N 31°14' E 122°03'  
2016-Jun-22 09:16N 31°18' E 121°48'912.7
2016-Jun-22 08:33N 31°22' E 121°38'7 7.0
2016-Jun-22 07:32N 31°25' E 121°30'0 0.0
2016-Jun-22 06:32N 31°25' E 121°30'0 0.0
2016-Jun-22 05:26N 31°25' E 121°30'0 0.0
2016-Jun-22 04:30N 31°25' E 121°30'45275.1
2016-Jun-21 22:29N 33°41' E 130°01'13 6.0
2016-Jun-21 20:25N 33°40' E 129°46'3125.8
2016-Jun-21 19:12N 33°37' E 130°24'469286.6
2016-Jun-21 17:34N 31°25' E 121°30'6 5.8
2016-Jun-21 16:33N 31°23' E 121°37'1111.3
2016-Jun-21 15:34N 31°17' E 121°49'1111.0
2016-Jun-21 14:34N 31°15' E 122°01'1110.9
2016-Jun-21 13:33N 31°10' E 122°12'1110.8
2016-Jun-21 12:30N 31°06' E 122°25'  
2016-Jun-18 09:29N 31°16' E 121°54'1313.9
2016-Jun-18 08:33N 31°21' E 121°40'9 9.3
2016-Jun-18 07:33N 31°25' E 121°30'0 0.0
2016-Jun-18 06:31N 31°25' E 121°30'0 0.0
2016-Jun-18 05:31N 31°25' E 121°30'0 0.0
2016-Jun-18 04:25N 31°25' E 121°30'0 0.0
2016-Jun-18 03:25N 31°25' E 121°30'0 0.0
2016-Jun-18 02:31N 31°25' E 121°30'0 0.0
2016-Jun-18 01:13N 31°25' E 121°30'0 0.0
2016-Jun-18 00:31N 31°25' E 121°30'0 0.2
2016-Jun-17 23:33N 31°25' E 121°31'5 5.4
2016-Jun-17 22:33N 31°23' E 121°36'1111.1
2016-Jun-17 21:33N 31°18' E 121°48'1211.6
2016-Jun-17 20:32N 31°15' E 122°01'1110.6
2016-Jun-17 19:31N 31°10' E 122°13'  

Dump ship's entire track history